Time;durP1;ratioP1;P1;durP2;ratioP2;P2;SDS_P1;SDS_P2;PMS_P1;PMS_P2;Temp;Humidity;BMP_temperature;BMP_pressure;BME280_temperature;BME280_humidity;BME280_pressure;Samples;Min_cycle;Max_cycle;Signal;HPM_P1;HPM_P2
2024/04/19 00:01:26;;;;;;;0.10;0.10;;;9.40;70.00;;;;;;5459905;26;20009;-77
2024/04/19 00:03:52;;;;;;;0.00;0.00;;;9.30;70.30;;;;;;5469537;26;20071;-78
2024/04/19 00:06:17;;;;;;;0.10;0.10;;;9.30;70.00;;;;;;5491567;26;19998;-77
2024/04/19 00:08:43;;;;;;;0.00;0.00;;;9.20;71.10;;;;;;5490356;26;19998;-77
2024/04/19 00:11:08;;;;;;;0.00;0.00;;;9.10;71.60;;;;;;5501410;26;19998;-77
2024/04/19 00:13:34;;;;;;;0.10;0.10;;;9.10;71.50;;;;;;5498749;26;20070;-77
2024/04/19 00:16:00;;;;;;;0.00;0.00;;;9.00;72.30;;;;;;5492398;26;20094;-77
2024/04/19 00:18:26;;;;;;;0.10;0.10;;;9.10;72.10;;;;;;5490405;26;20006;-76
2024/04/19 00:20:55;;;;;;;0.10;0.10;;;9.20;71.60;;;;;;5527756;26;20443;-76
2024/04/19 00:23:25;;;;;;;0.10;0.10;;;9.20;71.30;;;;;;5517080;26;20433;-76
2024/04/19 00:25:51;;;;;;;0.10;0.10;;;9.20;71.40;;;;;;5490934;26;20006;-77
2024/04/19 00:28:17;;;;;;;0.00;0.00;;;9.10;72.30;;;;;;5490064;26;20022;-76
2024/04/19 00:30:42;;;;;;;0.00;0.00;;;9.10;72.10;;;;;;5492168;26;20005;-76
2024/04/19 00:33:08;;;;;;;0.10;0.10;;;9.10;71.30;;;;;;5495626;26;19994;-76
2024/04/19 00:35:34;;;;;;;0.10;0.10;;;9.20;70.80;;;;;;5494956;26;19995;-77
2024/04/19 00:38:00;;;;;;;0.10;0.10;;;9.00;71.90;;;;;;5495796;26;20005;-76
2024/04/19 00:40:25;;;;;;;0.00;0.00;;;9.00;72.40;;;;;;5492986;26;20006;-77
2024/04/19 00:42:52;;;;;;;0.10;0.10;;;9.00;72.30;;;;;;5493669;26;20002;-77
2024/04/19 00:45:37;;;;;;;0.10;0.10;;;8.90;72.40;;;;;;5492749;26;19998;-77
2024/04/19 00:48:16;;;;;;;0.10;0.10;;;8.90;72.10;;;;;;5492950;26;19998;-77
2024/04/19 00:50:44;;;;;;;0.10;0.10;;;8.90;72.10;;;;;;5459125;26;20002;-77
2024/04/19 00:53:12;;;;;;;0.10;0.10;;;8.90;71.90;;;;;;5458676;26;20011;-77
2024/04/19 00:55:39;;;;;;;0.10;0.10;;;8.90;71.90;;;;;;5489025;26;20391;-77
2024/04/19 00:58:05;;;;;;;0.10;0.10;;;8.80;72.50;;;;;;5492836;26;19998;-76
2024/04/19 01:00:32;;;;;;;0.10;0.10;;;8.80;72.30;;;;;;5494468;26;20002;-77
2024/04/19 01:02:57;;;;;;;0.10;0.10;;;8.80;72.10;;;;;;5495246;26;20452;-76
2024/04/19 01:05:23;;;;;;;0.00;0.00;;;8.80;72.20;;;;;;5494420;26;20103;-76
2024/04/19 01:07:49;;;;;;;0.10;0.10;;;8.70;72.50;;;;;;5494483;26;20436;-76
2024/04/19 01:10:16;;;;;;;0.10;0.10;;;8.70;72.50;;;;;;5492934;26;20005;-77
2024/04/19 01:12:42;;;;;;;0.00;0.00;;;8.70;72.90;;;;;;5528616;26;19997;-76
2024/04/19 01:15:21;;;;;;;0.10;0.10;;;8.80;72.80;;;;;;5491830;26;20074;-77
2024/04/19 01:17:47;;;;;;;0.10;0.10;;;8.80;72.30;;;;;;5478411;26;19999;-77
2024/04/19 01:20:13;;;;;;;0.00;0.00;;;8.90;72.20;;;;;;5517859;26;20001;-77
2024/04/19 01:22:39;;;;;;;0.10;0.10;;;8.80;72.30;;;;;;5528733;25;20008;-76
2024/04/19 01:25:09;;;;;;;0.05;0.05;;;8.70;72.70;;;;;;5494530;26;20009;-77
2024/04/19 01:27:34;;;;;;;0.10;0.10;;;8.70;72.90;;;;;;5494275;26;19998;-77
2024/04/19 01:30:00;;;;;;;0.08;0.08;;;8.70;72.60;;;;;;5492957;26;20009;-77
2024/04/19 01:32:26;;;;;;;0.00;0.00;;;8.70;72.80;;;;;;5493884;26;20009;-77
2024/04/19 01:34:52;;;;;;;0.10;0.10;;;8.60;73.10;;;;;;5495040;26;19990;-77
2024/04/19 01:37:17;;;;;;;0.10;0.10;;;8.70;72.80;;;;;;5493565;26;20017;-76
2024/04/19 01:39:43;;;;;;;0.10;0.10;;;8.70;72.60;;;;;;5494562;26;20002;-77
2024/04/19 01:42:09;;;;;;;0.00;0.00;;;8.70;72.60;;;;;;5491525;26;20082;-76
2024/04/19 01:44:35;;;;;;;0.10;0.10;;;8.70;72.50;;;;;;5494631;26;19997;-77
2024/04/19 01:47:00;;;;;;;0.10;0.10;;;8.70;72.50;;;;;;5494888;26;19994;-77
2024/04/19 01:49:26;;;;;;;0.05;0.05;;;8.70;72.50;;;;;;5490485;26;20042;-77
2024/04/19 01:51:52;;;;;;;0.10;0.10;;;8.70;72.60;;;;;;5494586;26;20005;-76
2024/04/19 01:54:17;;;;;;;0.10;0.10;;;8.70;72.00;;;;;;5490762;26;19998;-77
2024/04/19 01:56:43;;;;;;;0.10;0.10;;;8.70;72.30;;;;;;5494279;26;20094;-77
2024/04/19 01:59:09;;;;;;;0.10;0.10;;;8.60;72.40;;;;;;5494204;26;20039;-76
2024/04/19 02:01:34;;;;;;;0.08;0.08;;;8.60;72.70;;;;;;5492750;26;19995;-77
2024/04/19 02:04:02;;;;;;;0.10;0.10;;;8.60;72.50;;;;;;5494173;26;19998;-77
2024/04/19 02:06:28;;;;;;;0.10;0.10;;;8.60;72.50;;;;;;5494220;26;20059;-77
2024/04/19 02:08:53;;;;;;;0.10;0.10;;;8.60;72.80;;;;;;5493145;26;20448;-77
2024/04/19 02:11:19;;;;;;;0.10;0.10;;;8.60;72.70;;;;;;5506458;26;20061;-79
2024/04/19 02:13:45;;;;;;;0.10;0.10;;;8.60;72.80;;;;;;5495635;26;19998;-76
2024/04/19 02:16:10;;;;;;;0.10;0.10;;;8.60;72.90;;;;;;5491579;26;19998;-77
2024/04/19 02:18:36;;;;;;;0.10;0.10;;;8.60;72.60;;;;;;5498769;26;20843;-79
2024/04/19 02:21:02;;;;;;;0.00;0.00;;;8.60;72.60;;;;;;5504814;26;20002;-77
2024/04/19 02:23:37;;;;;;;0.10;0.10;;;8.70;72.40;;;;;;5492815;26;20001;-78
2024/04/19 02:26:03;;;;;;;0.10;0.10;;;8.60;72.30;;;;;;5494110;26;20010;-79
2024/04/19 02:31:14;;;;;;;0.00;0.00;;;8.50;73.20;;;;;;5493421;26;20009;-79
2024/04/19 02:33:39;;;;;;;0.10;0.10;;;8.50;73.50;;;;;;5494455;26;20006;-79
2024/04/19 02:36:06;;;;;;;0.10;0.10;;;8.50;73.00;;;;;;5493714;26;20448;-79
2024/04/19 02:38:32;;;;;;;0.10;0.10;;;8.40;73.50;;;;;;5493308;26;20009;-79
2024/04/19 02:40:58;;;;;;;0.10;0.10;;;8.40;73.30;;;;;;5492582;26;20002;-79
2024/04/19 02:43:23;;;;;;;0.08;0.08;;;8.40;73.70;;;;;;5493710;26;20006;-79
2024/04/19 02:45:49;;;;;;;0.10;0.10;;;8.40;73.80;;;;;;5492748;26;20433;-79
2024/04/19 02:48:14;;;;;;;0.08;0.08;;;8.30;74.30;;;;;;5489046;26;20010;-79
2024/04/19 02:50:40;;;;;;;0.10;0.10;;;8.30;74.00;;;;;;5530348;26;20001;-78
2024/04/19 02:53:05;;;;;;;0.10;0.10;;;8.30;74.00;;;;;;5529959;26;20065;-79
2024/04/19 02:55:31;;;;;;;0.10;0.10;;;8.30;74.10;;;;;;5493615;26;20006;-78
2024/04/19 02:57:57;;;;;;;0.10;0.10;;;8.30;74.00;;;;;;5492606;26;19994;-79
2024/04/19 03:00:22;;;;;;;0.10;0.10;;;8.20;74.30;;;;;;5489978;26;20467;-79
2024/04/19 03:02:48;;;;;;;0.10;0.10;;;8.20;74.10;;;;;;5493242;26;20002;-78
2024/04/19 03:05:14;;;;;;;0.10;0.10;;;8.20;74.00;;;;;;5491348;26;19994;-79
2024/04/19 03:07:40;;;;;;;0.10;0.10;;;8.20;74.50;;;;;;5491426;26;20005;-79
2024/04/19 03:10:05;;;;;;;0.10;0.10;;;8.10;74.70;;;;;;5493243;26;20005;-79
2024/04/19 03:12:31;;;;;;;0.10;0.10;;;8.10;74.70;;;;;;5521910;26;20320;-79
2024/04/19 03:14:57;;;;;;;0.10;0.10;;;8.20;74.50;;;;;;5474941;26;19995;-78
2024/04/19 03:17:22;;;;;;;0.10;0.10;;;8.10;74.40;;;;;;5456348;26;20009;-79
2024/04/19 03:19:48;;;;;;;0.10;0.10;;;8.10;74.40;;;;;;5503348;26;20436;-79
2024/04/19 03:22:14;;;;;;;0.10;0.10;;;8.00;74.40;;;;;;5527617;26;20001;-79
2024/04/19 03:24:39;;;;;;;0.10;0.10;;;8.00;74.50;;;;;;5496102;26;19999;-77
2024/04/19 03:27:05;;;;;;;0.10;0.10;;;8.00;74.50;;;;;;5457014;26;19991;-79
2024/04/19 03:29:30;;;;;;;0.10;0.10;;;7.90;74.60;;;;;;5471568;26;20070;-79
2024/04/19 03:31:56;;;;;;;0.10;0.10;;;8.00;74.60;;;;;;5473818;26;19999;-79
2024/04/19 03:34:22;;;;;;;0.10;0.10;;;8.00;74.60;;;;;;5489501;26;19998;-79
2024/04/19 03:36:48;;;;;;;0.10;0.10;;;8.00;74.20;;;;;;5491126;26;19994;-79
2024/04/19 03:39:14;;;;;;;0.10;0.10;;;7.90;74.40;;;;;;5492643;26;19994;-79
2024/04/19 03:41:42;;;;;;;0.10;0.10;;;7.90;74.50;;;;;;5492088;26;19994;-79
2024/04/19 03:46:52;;;;;;;0.10;0.10;;;7.80;74.20;;;;;;5492921;26;20082;-78
2024/04/19 03:49:18;;;;;;;0.10;0.10;;;7.90;74.40;;;;;;5508329;26;20013;-79
2024/04/19 03:51:43;;;;;;;0.10;0.10;;;7.90;74.30;;;;;;5489863;26;19994;-79
2024/04/19 03:54:09;;;;;;;0.10;0.10;;;7.90;73.90;;;;;;5490582;26;20014;-79
2024/04/19 03:56:35;;;;;;;0.10;0.10;;;7.80;74.50;;;;;;5490844;26;20002;-79
2024/04/19 03:59:00;;;;;;;0.10;0.10;;;7.80;74.60;;;;;;5492094;26;20002;-79
2024/04/19 04:01:26;;;;;;;0.10;0.10;;;7.80;74.70;;;;;;5490008;26;19994;-79
2024/04/19 04:03:52;;;;;;;0.10;0.10;;;7.70;74.90;;;;;;5490388;26;19998;-79
2024/04/19 04:06:19;;;;;;;0.10;0.10;;;7.70;74.60;;;;;;5491084;26;20002;-79
2024/04/19 04:08:47;;;;;;;0.10;0.10;;;7.80;74.40;;;;;;5496075;26;20013;-79
2024/04/19 04:11:13;;;;;;;0.10;0.10;;;7.80;74.40;;;;;;5503646;26;20081;-78
2024/04/19 04:13:40;;;;;;;0.10;0.10;;;7.80;74.80;;;;;;5503709;26;20018;-77
2024/04/19 04:16:09;;;;;;;0.10;0.10;;;7.80;74.50;;;;;;5494537;26;20009;-79
2024/04/19 04:18:35;;;;;;;0.10;0.10;;;7.80;74.70;;;;;;5496125;26;20498;-79
2024/04/19 04:21:01;;;;;;;0.08;0.08;;;7.70;75.10;;;;;;5533284;25;20049;-79
2024/04/19 04:23:27;;;;;;;0.10;0.10;;;7.70;75.40;;;;;;5505727;25;20529;-79
2024/04/19 04:25:53;;;;;;;0.10;0.10;;;7.70;75.20;;;;;;5495496;26;20011;-79
2024/04/19 04:28:19;;;;;;;0.10;0.10;;;7.70;75.10;;;;;;5493453;26;20292;-79
2024/04/19 04:30:45;;;;;;;0.10;0.10;;;7.70;75.10;;;;;;5495945;26;20063;-79
2024/04/19 04:33:10;;;;;;;0.10;0.10;;;7.60;75.30;;;;;;5478001;26;19994;-79
2024/04/19 04:35:39;;;;;;;0.10;0.10;;;7.50;75.70;;;;;;5463683;26;20088;-78
2024/04/19 04:38:07;;;;;;;0.10;0.10;;;7.50;75.40;;;;;;5466788;26;19995;-79
2024/04/19 04:40:34;;;;;;;0.10;0.10;;;7.50;75.20;;;;;;5469018;26;20002;-78
2024/04/19 04:42:59;;;;;;;0.10;0.10;;;7.60;75.10;;;;;;5493383;26;20538;-78
2024/04/19 04:45:25;;;;;;;0.10;0.10;;;7.60;75.10;;;;;;5493252;26;20002;-79
2024/04/19 04:47:51;;;;;;;0.10;0.10;;;7.60;75.20;;;;;;5493617;26;20425;-78
2024/04/19 04:50:19;;;;;;;0.10;0.10;;;7.50;75.00;;;;;;5496810;26;20403;-79
2024/04/19 04:52:44;;;;;;;0.10;0.10;;;7.50;75.30;;;;;;5493000;26;20448;-76
2024/04/19 04:55:10;;;;;;;0.10;0.10;;;7.50;74.70;;;;;;5495142;25;20024;-77
2024/04/19 04:57:36;;;;;;;0.10;0.10;;;7.50;74.70;;;;;;5495237;26;20016;-77
2024/04/19 05:00:02;;;;;;;0.10;0.10;;;7.40;75.00;;;;;;5494856;26;19998;-87
2024/04/19 05:02:28;;;;;;;0.10;0.10;;;7.40;75.20;;;;;;5489568;26;20074;-84
2024/04/19 05:04:53;;;;;;;0.10;0.10;;;7.50;75.10;;;;;;5495313;26;19998;-84
2024/04/19 05:07:19;;;;;;;0.10;0.10;;;7.40;75.00;;;;;;5468442;26;20013;-79
2024/04/19 05:09:45;;;;;;;0.10;0.10;;;7.40;74.80;;;;;;5465306;26;20009;-81
2024/04/19 05:12:10;;;;;;;0.10;0.10;;;7.50;75.00;;;;;;5517943;26;20357;-80
2024/04/19 05:14:36;;;;;;;0.10;0.10;;;7.40;75.00;;;;;;5508601;26;20085;-77
2024/04/19 05:17:01;;;;;;;0.10;0.10;;;7.30;75.20;;;;;;5477742;26;20034;-81
2024/04/19 05:19:27;;;;;;;0.10;0.10;;;7.40;75.30;;;;;;5493029;26;20005;-79
2024/04/19 05:21:53;;;;;;;0.10;0.10;;;7.30;75.30;;;;;;5531561;26;19993;-79
2024/04/19 05:24:18;;;;;;;0.10;0.10;;;7.40;75.00;;;;;;5531848;26;20431;-81
2024/04/19 05:26:44;;;;;;;0.20;0.20;;;7.50;74.50;;;;;;5517548;26;20005;-82
2024/04/19 05:29:11;;;;;;;0.10;0.10;;;7.30;74.70;;;;;;5494815;26;19994;-80
2024/04/19 05:31:37;;;;;;;0.10;0.10;;;7.30;74.90;;;;;;5494792;26;20005;-80
2024/04/19 05:34:02;;;;;;;0.10;0.10;;;7.30;75.20;;;;;;5493281;26;19994;-80
2024/04/19 05:36:28;;;;;;;0.10;0.10;;;7.40;74.80;;;;;;5478644;26;20436;-80
2024/04/19 05:38:53;;;;;;;0.10;0.10;;;7.40;74.70;;;;;;5457849;26;20007;-80
2024/04/19 05:41:19;;;;;;;0.10;0.10;;;7.50;75.00;;;;;;5475313;26;20045;-80
2024/04/19 05:43:48;;;;;;;0.10;0.10;;;7.50;74.90;;;;;;5493351;26;20002;-80
2024/04/19 05:46:14;;;;;;;0.10;0.10;;;7.50;75.10;;;;;;5485083;26;19990;-80
2024/04/19 05:48:40;;;;;;;0.10;0.10;;;7.50;75.10;;;;;;5491910;26;20093;-79
2024/04/19 05:51:05;;;;;;;0.10;0.10;;;7.60;75.00;;;;;;5491774;26;20006;-78
2024/04/19 05:53:31;;;;;;;0.10;0.10;;;7.60;75.10;;;;;;5491724;26;20320;-79
2024/04/19 05:55:56;;;;;;;0.10;0.10;;;7.60;75.00;;;;;;5493525;26;20689;-76
2024/04/19 05:58:24;;;;;;;0.10;0.10;;;7.60;75.40;;;;;;5493829;26;20016;-78
2024/04/19 06:00:49;;;;;;;0.10;0.10;;;7.60;75.30;;;;;;5493452;26;19990;-78
2024/04/19 06:03:15;;;;;;;0.10;0.10;;;7.60;75.40;;;;;;5493993;25;20002;-76
2024/04/19 06:05:41;;;;;;;0.10;0.10;;;7.60;75.70;;;;;;5492331;26;20012;-78
2024/04/19 06:08:07;;;;;;;0.10;0.10;;;7.70;75.20;;;;;;5492737;26;20306;-78
2024/04/19 06:10:34;;;;;;;0.10;0.10;;;7.70;75.20;;;;;;5494922;26;20009;-78
2024/04/19 06:12:59;;;;;;;0.10;0.10;;;7.80;75.20;;;;;;5477201;25;20099;-78
2024/04/19 06:15:25;;;;;;;0.10;0.10;;;7.80;75.20;;;;;;5486301;26;20329;-78
2024/04/19 06:17:51;;;;;;;0.10;0.10;;;7.80;75.30;;;;;;5491163;26;20452;-79
2024/04/19 06:20:16;;;;;;;0.10;0.10;;;7.80;74.70;;;;;;5504584;26;20429;-78
2024/04/19 06:22:42;;;;;;;0.10;0.10;;;7.80;74.70;;;;;;5514790;26;19994;-78
2024/04/19 06:25:08;;;;;;;0.10;0.10;;;7.90;74.70;;;;;;5518904;26;19998;-78
2024/04/19 06:27:34;;;;;;;0.10;0.10;;;7.90;74.20;;;;;;5489701;26;20038;-78
2024/04/19 06:30:00;;;;;;;0.10;0.10;;;7.90;74.50;;;;;;5492898;26;20002;-78
2024/04/19 06:32:25;;;;;;;0.10;0.10;;;7.90;74.50;;;;;;5493836;26;19998;-78
2024/04/19 06:34:51;;;;;;;0.10;0.10;;;7.90;74.40;;;;;;5492288;26;20002;-78
2024/04/19 06:37:17;;;;;;;0.10;0.10;;;8.00;74.50;;;;;;5493428;26;20010;-78
2024/04/19 06:39:42;;;;;;;0.10;0.10;;;8.00;74.30;;;;;;5493051;26;19998;-79
2024/04/19 06:42:08;;;;;;;0.10;0.10;;;8.10;74.10;;;;;;5491730;26;20002;-79
2024/04/19 06:44:34;;;;;;;0.10;0.10;;;8.10;74.00;;;;;;5492233;26;20020;-78
2024/04/19 06:46:59;;;;;;;0.10;0.10;;;8.20;74.20;;;;;;5493542;26;20448;-76
2024/04/19 06:49:25;;;;;;;0.13;0.13;;;8.20;74.00;;;;;;5511101;26;19997;-79
2024/04/19 06:51:51;;;;;;;0.10;0.10;;;8.30;73.80;;;;;;5503395;25;20002;-79
2024/04/19 06:54:16;;;;;;;0.10;0.10;;;8.30;73.70;;;;;;5493226;26;20332;-77
2024/04/19 06:56:42;;;;;;;0.10;0.10;;;8.40;74.00;;;;;;5491351;26;20640;-78
2024/04/19 06:59:09;;;;;;;0.10;0.10;;;8.50;73.90;;;;;;5492878;26;19998;-79
2024/04/19 07:01:37;;;;;;;0.10;0.10;;;8.50;73.80;;;;;;5493435;26;19994;-78
2024/04/19 07:04:03;;;;;;;0.10;0.10;;;8.60;74.10;;;;;;5492562;26;20476;-77
2024/04/19 07:06:29;;;;;;;0.10;0.10;;;8.60;74.20;;;;;;5492821;26;19995;-77
2024/04/19 07:08:54;;;;;;;0.10;0.10;;;8.70;74.50;;;;;;5492348;26;20324;-79
2024/04/19 07:11:20;;;;;;;0.10;0.10;;;8.70;74.90;;;;;;5505041;26;19998;-77
2024/04/19 07:13:46;;;;;;;0.10;0.10;;;8.80;74.70;;;;;;5464519;26;19999;-78
2024/04/19 07:16:14;;;;;;;0.10;0.10;;;9.00;74.40;;;;;;5456728;26;20079;-79
2024/04/19 07:18:40;;;;;;;0.10;0.10;;;9.10;74.20;;;;;;5496484;26;19994;-77
2024/04/19 07:21:06;;;;;;;0.10;0.10;;;9.10;74.00;;;;;;5530167;26;19997;-79
2024/04/19 07:23:32;;;;;;;0.17;0.17;;;9.20;74.40;;;;;;5529844;26;19994;-77
2024/04/19 07:25:57;;;;;;;0.10;0.10;;;9.80;73.90;;;;;;5499508;26;20002;-77
2024/04/19 07:28:23;;;;;;;0.20;0.20;;;10.80;71.10;;;;;;5491697;26;19993;-77
2024/04/19 07:30:49;;;;;;;0.20;0.20;;;11.20;69.80;;;;;;5492882;26;20005;-77
2024/04/19 07:33:15;;;;;;;0.10;0.10;;;11.50;69.20;;;;;;5491854;26;20523;-77
2024/04/19 07:35:40;;;;;;;0.10;0.10;;;11.50;68.60;;;;;;5491780;26;19999;-77
2024/04/19 07:38:06;;;;;;;0.30;0.30;;;11.30;68.90;;;;;;5492583;26;20012;-77
2024/04/19 07:40:35;;;;;;;0.20;0.20;;;11.30;69.00;;;;;;5476791;26;20003;-76
2024/04/19 07:43:00;;;;;;;0.20;0.20;;;11.60;69.00;;;;;;5473099;26;20010;-79
2024/04/19 07:45:26;;;;;;;0.20;0.20;;;12.20;68.00;;;;;;5490672;26;20037;-76
2024/04/19 07:47:52;;;;;;;0.40;0.40;;;12.80;66.50;;;;;;5492675;26;20433;-79
2024/04/19 07:50:19;;;;;;;0.60;0.60;;;13.60;64.80;;;;;;5502522;26;20008;-77
2024/04/19 07:52:47;;;;;;;0.60;0.60;;;15.20;61.50;;;;;;5491838;26;19998;-77
2024/04/19 07:55:12;;;;;;;0.60;0.60;;;18.00;55.40;;;;;;5490150;26;20436;-77
2024/04/19 07:57:38;;;;;;;0.60;0.60;;;20.50;49.40;;;;;;5491207;26;20033;-77
2024/04/19 08:00:06;;;;;;;0.60;0.60;;;22.30;43.00;;;;;;5490283;26;20006;-78
2024/04/19 08:02:32;;;;;;;0.60;0.60;;;23.80;41.30;;;;;;5490682;26;20066;-78
2024/04/19 08:04:57;;;;;;;0.60;0.60;;;24.90;39.20;;;;;;5490750;26;20418;-78
2024/04/19 08:07:26;;;;;;;0.60;0.60;;;25.70;36.70;;;;;;5490805;26;19994;-78
2024/04/19 08:09:53;;;;;;;0.60;0.60;;;26.40;36.00;;;;;;5491877;26;19994;-78
2024/04/19 08:12:18;;;;;;;0.70;0.70;;;26.80;34.40;;;;;;5516964;26;20015;-78
2024/04/19 08:14:44;;;;;;;0.70;0.70;;;27.20;33.80;;;;;;5520670;26;19998;-78
2024/04/19 08:17:10;;;;;;;0.70;0.70;;;27.60;33.50;;;;;;5480665;26;20453;-78
2024/04/19 08:19:35;;;;;;;0.80;0.80;;;28.00;32.60;;;;;;5477628;26;19998;-78
2024/04/19 08:22:01;;;;;;;0.60;0.60;;;28.40;31.50;;;;;;5471266;26;20006;-78
2024/04/19 08:24:28;;;;;;;0.50;0.50;;;28.60;31.60;;;;;;5475005;26;20010;-78
2024/04/19 08:26:53;;;;;;;0.75;0.75;;;28.80;31.10;;;;;;5472711;26;20009;-78
2024/04/19 08:29:19;;;;;;;0.88;0.88;;;28.80;30.70;;;;;;5491651;26;20002;-78
2024/04/19 08:31:45;;;;;;;0.90;0.90;;;29.10;30.90;;;;;;5490282;26;20002;-78
2024/04/19 08:34:12;;;;;;;1.00;1.00;;;29.60;30.50;;;;;;5489435;26;19998;-78
2024/04/19 08:36:37;;;;;;;0.55;0.55;;;29.70;29.50;;;;;;5487704;26;20006;-78
2024/04/19 08:39:03;;;;;;;0.60;0.60;;;29.70;29.30;;;;;;5491584;26;20070;-78
2024/04/19 08:41:30;;;;;;;0.52;0.52;;;29.80;30.20;;;;;;5491237;26;20008;-78
2024/04/19 08:44:00;;;;;;;0.10;0.10;;;29.90;29.30;;;;;;5489407;26;19998;-78
2024/04/19 08:46:32;;;;;;;0.38;0.38;;;27.50;31.80;;;;;;5490154;26;20002;-78
2024/04/19 08:49:02;;;;;;;0.70;0.70;;;27.20;32.60;;;;;;5497962;26;19993;-78
2024/04/19 08:51:30;;;;;;;0.90;0.90;;;26.70;33.90;;;;;;5512517;25;20002;-77
2024/04/19 08:53:55;;;;;;;0.10;0.10;;;27.10;33.30;;;;;;5495241;26;19998;-78
2024/04/19 08:56:23;;;;;;;0.10;0.10;;;26.90;33.60;;;;;;5494816;26;19998;-78
2024/04/19 08:58:48;;;;;;;0.10;0.10;;;26.30;34.10;;;;;;5493966;26;20439;-77
2024/04/19 09:01:14;;;;;;;0.10;0.10;;;24.50;35.40;;;;;;5494723;26;19994;-77
2024/04/19 09:03:39;;;;;;;0.00;0.00;;;24.20;36.40;;;;;;5495532;26;19994;-77
2024/04/19 09:06:07;;;;;;;0.08;0.08;;;22.80;37.70;;;;;;5494126;26;20451;-77
2024/04/19 09:08:34;;;;;;;0.00;0.00;;;22.10;39.60;;;;;;5491521;26;19998;-76
2024/04/19 09:11:09;;;;;;;0.00;0.00;;;21.40;40.60;;;;;;5501960;26;20540;-77
2024/04/19 09:13:35;;;;;;;0.00;0.00;;;20.80;41.80;;;;;;5531833;25;19997;-76
2024/04/19 09:16:00;;;;;;;0.00;0.00;;;20.10;43.30;;;;;;5498247;26;20005;-76
2024/04/19 09:18:26;;;;;;;0.10;0.10;;;19.80;44.70;;;;;;5480811;26;20457;-76
2024/04/19 09:20:52;;;;;;;0.00;0.00;;;19.50;45.20;;;;;;5521454;26;20009;-76
2024/04/19 09:23:17;;;;;;;0.00;0.00;;;19.30;45.80;;;;;;5494800;26;19998;-76
2024/04/19 09:25:43;;;;;;;0.00;0.00;;;19.20;46.00;;;;;;5493146;26;20075;-76
2024/04/19 09:28:12;;;;;;;0.10;0.10;;;18.90;46.60;;;;;;5494031;26;20366;-76
2024/04/19 09:30:40;;;;;;;0.00;0.00;;;18.80;46.80;;;;;;5493680;26;20078;-77
2024/04/19 09:33:06;;;;;;;0.10;0.10;;;18.80;46.80;;;;;;5523401;26;20018;-77
2024/04/19 09:35:31;;;;;;;0.10;0.10;;;18.70;47.60;;;;;;5475158;26;20013;-76
2024/04/19 09:37:58;;;;;;;0.10;0.10;;;18.80;47.40;;;;;;5493999;26;19998;-76
2024/04/19 09:40:26;;;;;;;0.10;0.10;;;18.80;47.40;;;;;;5481564;26;20010;-76
2024/04/19 09:42:54;;;;;;;0.10;0.10;;;18.90;47.40;;;;;;5483372;26;20009;-76
2024/04/19 09:45:21;;;;;;;0.10;0.10;;;19.00;47.50;;;;;;5493356;26;19998;-77
2024/04/19 09:47:52;;;;;;;0.30;0.30;;;19.20;47.80;;;;;;5486941;26;20480;-77
2024/04/19 09:50:22;;;;;;;0.10;0.10;;;19.60;47.40;;;;;;5525210;26;19997;-76
2024/04/19 09:52:50;;;;;;;0.10;0.10;;;19.70;46.80;;;;;;5531183;25;20012;-76
2024/04/19 09:55:29;;;;;;;0.10;0.10;;;19.60;46.60;;;;;;5500933;25;20417;-76
2024/04/19 09:57:55;;;;;;;0.03;0.03;;;19.30;46.80;;;;;;5494181;26;20038;-79
2024/04/19 10:00:23;;;;;;;0.00;0.00;;;18.90;47.80;;;;;;5494127;26;20023;-76
2024/04/19 10:02:50;;;;;;;0.00;0.00;;;18.60;48.70;;;;;;5492463;26;20014;-77
2024/04/19 10:05:16;;;;;;;0.00;0.00;;;18.30;49.70;;;;;;5493423;26;20005;-78
2024/04/19 10:07:45;;;;;;;0.10;0.10;;;18.20;49.90;;;;;;5493519;26;20013;-77
2024/04/19 10:10:10;;;;;;;0.10;0.10;;;18.10;50.50;;;;;;5494151;26;20021;-78
2024/04/19 10:12:37;;;;;;;0.00;0.00;;;18.00;50.10;;;;;;5525659;26;19997;-78
2024/04/19 10:15:02;;;;;;;0.10;0.10;;;17.80;50.50;;;;;;5499365;25;19994;-78
2024/04/19 10:17:28;;;;;;;0.00;0.00;;;17.60;51.00;;;;;;5493969;26;19994;-78
2024/04/19 10:19:55;;;;;;;0.10;0.10;;;17.40;51.60;;;;;;5518215;26;20009;-79
2024/04/19 10:22:23;;;;;;;0.10;0.10;;;17.50;52.80;;;;;;5503482;25;20017;-77
2024/04/19 10:25:02;;;;;;;0.10;0.10;;;17.60;52.60;;;;;;5491229;26;19997;-77
2024/04/19 10:27:28;;;;;;;0.10;0.10;;;17.80;52.00;;;;;;5493565;26;20062;-76
2024/04/19 10:29:57;;;;;;;0.10;0.10;;;17.80;52.00;;;;;;5492524;26;20012;-76
2024/04/19 10:32:23;;;;;;;0.10;0.10;;;17.90;52.10;;;;;;5492089;26;20013;-78
2024/04/19 10:34:51;;;;;;;0.10;0.10;;;17.80;52.20;;;;;;5493839;26;20006;-78
2024/04/19 10:37:17;;;;;;;0.00;0.00;;;17.70;52.00;;;;;;5490809;26;20070;-77
2024/04/19 10:39:42;;;;;;;0.08;0.08;;;17.60;51.80;;;;;;5493460;26;20010;-78
2024/04/19 10:42:09;;;;;;;0.00;0.00;;;17.30;52.70;;;;;;5493233;26;20006;-76
2024/04/19 10:44:39;;;;;;;0.10;0.10;;;17.20;53.70;;;;;;5491286;26;20005;-76
2024/04/19 10:47:06;;;;;;;0.10;0.10;;;17.10;53.90;;;;;;5493816;26;19998;-77
2024/04/19 10:49:31;;;;;;;0.10;0.10;;;17.10;53.60;;;;;;5512326;26;20012;-78
2024/04/19 10:51:59;;;;;;;0.10;0.10;;;17.20;53.50;;;;;;5500498;25;19999;-78
2024/04/19 10:54:25;;;;;;;0.10;0.10;;;17.10;53.40;;;;;;5493264;26;20015;-78
2024/04/19 10:56:52;;;;;;;0.10;0.10;;;17.00;54.00;;;;;;5493234;26;20013;-78
2024/04/19 10:59:18;;;;;;;0.10;0.10;;;16.90;54.00;;;;;;5489622;26;19998;-79
2024/04/19 11:01:45;;;;;;;0.05;0.05;;;17.00;54.20;;;;;;5479698;26;20006;-79
2024/04/19 11:04:12;;;;;;;0.00;0.00;;;16.90;53.80;;;;;;5466217;26;20006;-80
2024/04/19 11:06:38;;;;;;;0.10;0.10;;;16.90;54.00;;;;;;5469666;26;20007;-78
2024/04/19 11:09:03;;;;;;;0.10;0.10;;;16.80;54.20;;;;;;5477178;26;19998;-79
2024/04/19 11:11:37;;;;;;;0.10;0.10;;;16.90;54.70;;;;;;5479268;26;20009;-78
2024/04/19 11:14:06;;;;;;;0.10;0.10;;;17.00;54.30;;;;;;5474332;26;20034;-83
2024/04/19 11:16:32;;;;;;;0.10;0.10;;;17.10;54.20;;;;;;5471652;26;20321;-80
2024/04/19 11:18:57;;;;;;;0.00;0.00;;;17.20;54.40;;;;;;5484378;26;20004;-80
2024/04/19 11:21:23;;;;;;;0.10;0.10;;;17.30;53.90;;;;;;5469822;26;20001;-80
2024/04/19 11:23:50;;;;;;;0.00;0.00;;;17.30;54.20;;;;;;5472220;26;20004;-79
2024/04/19 11:26:17;;;;;;;0.10;0.10;;;17.30;53.90;;;;;;5457113;26;19990;-79
2024/04/19 11:28:50;;;;;;;0.10;0.10;;;17.30;54.00;;;;;;5474034;26;20047;-77
2024/04/19 11:31:16;;;;;;;;;;;17.30;53.90;;;;;;5461934;26;20019;-78
2024/04/19 11:33:42;;;;;;;0.10;0.10;;;17.30;54.50;;;;;;5486712;26;19924;-78
2024/04/19 11:36:12;;;;;;;0.10;0.10;;;17.30;53.80;;;;;;5474639;26;19998;-79
2024/04/19 11:38:37;;;;;;;0.10;0.10;;;17.20;53.50;;;;;;5490328;26;20459;-78
2024/04/19 11:41:03;;;;;;;0.10;0.10;;;17.20;53.80;;;;;;5484843;26;20010;-78
2024/04/19 11:43:30;;;;;;;0.10;0.10;;;17.20;54.20;;;;;;5476236;26;20012;-78
2024/04/19 11:45:56;;;;;;;0.10;0.10;;;17.20;54.10;;;;;;5475010;26;19998;-79
2024/04/19 11:48:27;;;;;;;0.10;0.10;;;17.20;54.60;;;;;;5491127;26;20310;-78
2024/04/19 11:50:54;;;;;;;0.08;0.08;;;17.00;54.60;;;;;;5480738;26;20570;-78
2024/04/19 11:53:20;;;;;;;0.00;0.00;;;16.90;55.20;;;;;;5457279;26;20076;-78
2024/04/19 11:55:50;;;;;;;0.00;0.00;;;16.90;54.50;;;;;;5459561;26;20002;-78
2024/04/19 11:58:18;;;;;;;0.10;0.10;;;16.80;55.30;;;;;;5491765;26;19991;-78
2024/04/19 12:00:44;;;;;;;0.10;0.10;;;16.80;55.40;;;;;;5492393;26;20002;-78
2024/04/19 12:03:09;;;;;;;0.10;0.10;;;16.70;55.70;;;;;;5489966;26;20344;-78
2024/04/19 12:05:37;;;;;;;0.10;0.10;;;16.80;56.10;;;;;;5505602;26;20032;-78
2024/04/19 12:08:03;;;;;;;0.10;0.10;;;17.00;55.70;;;;;;5491472;26;20005;-78
2024/04/19 12:10:29;;;;;;;0.10;0.10;;;17.10;55.50;;;;;;5490533;26;19998;-78
2024/04/19 12:12:55;;;;;;;0.10;0.10;;;17.30;55.90;;;;;;5505728;26;20006;-78
2024/04/19 12:15:20;;;;;;;0.10;0.10;;;17.50;55.10;;;;;;5490189;26;20009;-78
2024/04/19 12:17:46;;;;;;;0.10;0.10;;;17.50;54.30;;;;;;5490979;26;20521;-78
2024/04/19 12:20:12;;;;;;;0.10;0.10;;;17.40;54.40;;;;;;5521673;26;19997;-78
2024/04/19 12:22:38;;;;;;;0.10;0.10;;;17.40;54.30;;;;;;5527125;26;20005;-78
2024/04/19 12:25:03;;;;;;;0.00;0.00;;;17.30;54.30;;;;;;5495329;25;19999;-78
2024/04/19 12:27:29;;;;;;;0.10;0.10;;;17.20;54.80;;;;;;5491664;26;19998;-78
2024/04/19 12:29:55;;;;;;;0.10;0.10;;;17.30;55.30;;;;;;5495640;26;20013;-78
2024/04/19 12:32:20;;;;;;;0.10;0.10;;;17.30;54.90;;;;;;5494271;26;20001;-78
2024/04/19 12:34:46;;;;;;;0.10;0.10;;;17.30;54.60;;;;;;5495734;26;20002;-78
2024/04/19 12:37:12;;;;;;;0.10;0.10;;;17.30;55.20;;;;;;5494048;26;20010;-78
2024/04/19 12:39:37;;;;;;;0.10;0.10;;;17.20;55.40;;;;;;5493704;26;20005;-78
2024/04/19 12:42:04;;;;;;;0.10;0.10;;;17.20;55.40;;;;;;5491778;26;20002;-78
2024/04/19 12:44:30;;;;;;;0.10;0.10;;;17.30;55.50;;;;;;5495617;25;20017;-78
2024/04/19 12:46:57;;;;;;;0.10;0.10;;;17.20;55.80;;;;;;5495187;26;19998;-79
2024/04/19 12:49:23;;;;;;;0.10;0.10;;;17.20;55.70;;;;;;5512244;26;20058;-78
2024/04/19 12:51:49;;;;;;;0.00;0.00;;;17.00;56.00;;;;;;5505655;25;20870;-78
2024/04/19 12:54:17;;;;;;;0.10;0.10;;;16.80;56.40;;;;;;5495259;26;20012;-78